METAR Data
IDs: Format: Raw Decoded Include TAF

Data at: 2319 UTC 29 May 2020

METAR for:KICL (Clarinda/Schenck Fld, IA, US)
Text:KICL 292315Z AUTO 33011G19KT 10SM CLR 24/06 A3015 RMK AO2
Temperature: 24.0°C ( 75°F)
Dewpoint: 6.0°C ( 43°F) [RH = 31%]
Pressure (altimeter):30.15 inches Hg (1021.1 mb)
Winds:from the NNW (330 degrees) at 13 MPH (11 knots; 5.7 m/s) gusting to 22 MPH (19 knots; 9.8 m/s)
Visibility:10 or more sm (16+ km)
Ceiling:at least 12,000 feet AGL
Clouds:sky clear below 12,000 feet AGL
QC Flag:automated observation with no human augmentation